sensor_id;sensor_type;location;lat;lon;timestamp;pressure;altitude;pressure_sealevel;temperature;humidity
79709;BME280;69203;48.964;9.118;2023-10-13T00:00:06;99059.53;;;16.73;100.00
79709;BME280;69203;48.964;9.118;2023-10-13T00:01:25;99058.44;;;17.14;100.00
79709;BME280;69203;48.964;9.118;2023-10-13T00:02:26;99058.03;;;17.09;100.00
79709;BME280;69203;48.964;9.118;2023-10-13T00:03:26;99058.03;;;16.90;100.00
79709;BME280;69203;48.964;9.118;2023-10-13T00:04:31;99056.59;;;16.76;100.00
79709;BME280;69203;48.964;9.118;2023-10-13T00:05:35;99063.56;;;16.68;100.00
79709;BME280;69203;48.964;9.118;2023-10-13T00:06:37;99053.63;;;16.60;100.00
79709;BME280;69203;48.964;9.118;2023-10-13T00:07:37;99057.50;;;16.56;100.00
79709;BME280;69203;48.964;9.118;2023-10-13T00:08:38;99056.75;;;16.65;100.00
79709;BME280;69203;48.964;9.118;2023-10-13T00:09:39;99055.72;;;16.57;100.00
79709;BME280;69203;48.964;9.118;2023-10-13T00:10:40;99053.75;;;16.49;100.00
79709;BME280;69203;48.964;9.118;2023-10-13T00:11:41;99051.47;;;16.44;100.00
79709;BME280;69203;48.964;9.118;2023-10-13T00:12:41;99051.06;;;16.39;100.00
79709;BME280;69203;48.964;9.118;2023-10-13T00:13:49;99056.03;;;16.63;100.00
79709;BME280;69203;48.964;9.118;2023-10-13T00:14:50;99053.06;;;16.57;100.00
79709;BME280;69203;48.964;9.118;2023-10-13T00:15:51;99045.38;;;16.54;100.00
79709;BME280;69203;48.964;9.118;2023-10-13T00:16:57;99056.19;;;16.71;100.00
79709;BME280;69203;48.964;9.118;2023-10-13T00:18:16;99052.66;;;16.61;100.00
79709;BME280;69203;48.964;9.118;2023-10-13T00:19:19;99056.59;;;16.67;100.00
79709;BME280;69203;48.964;9.118;2023-10-13T00:20:19;99057.94;;;16.52;100.00
79709;BME280;69203;48.964;9.118;2023-10-13T00:21:35;99056.41;;;16.49;100.00
79709;BME280;69203;48.964;9.118;2023-10-13T00:22:35;99048.28;;;16.51;100.00
79709;BME280;69203;48.964;9.118;2023-10-13T00:23:40;99054.44;;;16.51;100.00
79709;BME280;69203;48.964;9.118;2023-10-13T00:24:52;99053.81;;;16.78;100.00
79709;BME280;69203;48.964;9.118;2023-10-13T00:25:59;99055.22;;;16.72;100.00
79709;BME280;69203;48.964;9.118;2023-10-13T00:26:59;99040.34;;;16.51;100.00
79709;BME280;69203;48.964;9.118;2023-10-13T00:28:01;99041.69;;;16.35;100.00
79709;BME280;69203;48.964;9.118;2023-10-13T00:29:02;99044.13;;;16.48;100.00
79709;BME280;69203;48.964;9.118;2023-10-13T00:30:09;99041.09;;;16.62;100.00
79709;BME280;69203;48.964;9.118;2023-10-13T00:31:28;99043.38;;;16.36;100.00
79709;BME280;69203;48.964;9.118;2023-10-13T00:32:36;99047.94;;;16.25;100.00
79709;BME280;69203;48.964;9.118;2023-10-13T00:33:39;99049.75;;;16.24;100.00
79709;BME280;69203;48.964;9.118;2023-10-13T00:34:41;99049.13;;;16.41;100.00
79709;BME280;69203;48.964;9.118;2023-10-13T00:35:42;99046.69;;;16.59;100.00
79709;BME280;69203;48.964;9.118;2023-10-13T00:36:42;99051.22;;;16.38;100.00
79709;BME280;69203;48.964;9.118;2023-10-13T00:38:09;99050.69;;;16.14;100.00
79709;BME280;69203;48.964;9.118;2023-10-13T00:39:23;99050.34;;;16.28;100.00
79709;BME280;69203;48.964;9.118;2023-10-13T00:40:25;99044.84;;;16.20;100.00
79709;BME280;69203;48.964;9.118;2023-10-13T00:41:31;99047.59;;;16.39;100.00
79709;BME280;69203;48.964;9.118;2023-10-13T00:42:51;99048.75;;;16.16;100.00
79709;BME280;69203;48.964;9.118;2023-10-13T00:43:52;99055.00;;;16.05;100.00
79709;BME280;69203;48.964;9.118;2023-10-13T00:45:05;99045.56;;;16.22;100.00
79709;BME280;69203;48.964;9.118;2023-10-13T00:46:05;99053.06;;;16.07;100.00
79709;BME280;69203;48.964;9.118;2023-10-13T00:47:16;99058.84;;;15.91;100.00
79709;BME280;69203;48.964;9.118;2023-10-13T00:48:29;99053.59;;;16.01;100.00
79709;BME280;69203;48.964;9.118;2023-10-13T00:49:34;99044.78;;;16.00;100.00
79709;BME280;69203;48.964;9.118;2023-10-13T00:50:39;99051.78;;;16.01;100.00
79709;BME280;69203;48.964;9.118;2023-10-13T00:51:41;99046.81;;;15.87;100.00
79709;BME280;69203;48.964;9.118;2023-10-13T00:52:47;99050.38;;;15.77;100.00
79709;BME280;69203;48.964;9.118;2023-10-13T00:53:51;99048.13;;;15.72;100.00
79709;BME280;69203;48.964;9.118;2023-10-13T00:54:51;99047.81;;;15.66;100.00
79709;BME280;69203;48.964;9.118;2023-10-13T00:55:53;99053.88;;;15.56;100.00
79709;BME280;69203;48.964;9.118;2023-10-13T00:56:57;99049.94;;;15.72;100.00
79709;BME280;69203;48.964;9.118;2023-10-13T00:58:04;99058.66;;;15.83;100.00
79709;BME280;69203;48.964;9.118;2023-10-13T00:59:05;99054.38;;;15.71;100.00
79709;BME280;69203;48.964;9.118;2023-10-13T01:00:05;99055.00;;;15.75;100.00
79709;BME280;69203;48.964;9.118;2023-10-13T01:01:19;99055.28;;;15.81;100.00
79709;BME280;69203;48.964;9.118;2023-10-13T01:02:22;99052.91;;;15.78;100.00
79709;BME280;69203;48.964;9.118;2023-10-13T01:03:49;99059.28;;;15.76;100.00
79709;BME280;69203;48.964;9.118;2023-10-13T01:04:50;99066.13;;;15.78;100.00
79709;BME280;69203;48.964;9.118;2023-10-13T01:05:51;99064.50;;;15.87;100.00
79709;BME280;69203;48.964;9.118;2023-10-13T01:06:54;99062.53;;;15.79;100.00
79709;BME280;69203;48.964;9.118;2023-10-13T01:07:54;99057.13;;;15.81;100.00
79709;BME280;69203;48.964;9.118;2023-10-13T01:08:58;99054.66;;;15.68;100.00
79709;BME280;69203;48.964;9.118;2023-10-13T01:10:11;99056.97;;;15.61;100.00
79709;BME280;69203;48.964;9.118;2023-10-13T01:11:15;99054.63;;;15.89;100.00
79709;BME280;69203;48.964;9.118;2023-10-13T01:12:15;99058.84;;;15.71;100.00
79709;BME280;69203;48.964;9.118;2023-10-13T01:13:15;99056.03;;;15.62;100.00
79709;BME280;69203;48.964;9.118;2023-10-13T01:14:17;99053.25;;;15.64;100.00
79709;BME280;69203;48.964;9.118;2023-10-13T01:15:18;99055.91;;;15.64;100.00
79709;BME280;69203;48.964;9.118;2023-10-13T01:16:22;99049.69;;;15.75;100.00
79709;BME280;69203;48.964;9.118;2023-10-13T01:17:24;99049.50;;;15.67;100.00
79709;BME280;69203;48.964;9.118;2023-10-13T01:18:33;99050.34;;;15.67;100.00
79709;BME280;69203;48.964;9.118;2023-10-13T01:19:40;99049.03;;;15.61;100.00
79709;BME280;69203;48.964;9.118;2023-10-13T01:20:45;99048.94;;;15.93;100.00
79709;BME280;69203;48.964;9.118;2023-10-13T01:21:47;99039.63;;;15.99;100.00
79709;BME280;69203;48.964;9.118;2023-10-13T01:22:48;99048.00;;;16.04;100.00
79709;BME280;69203;48.964;9.118;2023-10-13T01:23:56;99041.78;;;15.84;100.00
79709;BME280;69203;48.964;9.118;2023-10-13T01:24:56;99038.69;;;15.79;100.00
79709;BME280;69203;48.964;9.118;2023-10-13T01:26:05;99039.88;;;15.66;100.00
79709;BME280;69203;48.964;9.118;2023-10-13T01:27:07;99038.97;;;15.55;100.00
79709;BME280;69203;48.964;9.118;2023-10-13T01:28:18;99036.78;;;15.60;100.00
79709;BME280;69203;48.964;9.118;2023-10-13T01:29:18;99030.84;;;15.47;100.00
79709;BME280;69203;48.964;9.118;2023-10-13T01:30:19;99033.00;;;15.53;100.00
79709;BME280;69203;48.964;9.118;2023-10-13T01:31:24;99028.91;;;15.70;100.00
79709;BME280;69203;48.964;9.118;2023-10-13T01:32:26;99015.56;;;15.81;100.00
79709;BME280;69203;48.964;9.118;2023-10-13T01:33:27;99024.78;;;15.87;100.00
79709;BME280;69203;48.964;9.118;2023-10-13T01:34:29;99023.03;;;15.97;100.00
79709;BME280;69203;48.964;9.118;2023-10-13T01:35:33;99021.50;;;15.94;100.00
79709;BME280;69203;48.964;9.118;2023-10-13T01:36:41;99016.38;;;15.72;100.00
79709;BME280;69203;48.964;9.118;2023-10-13T01:37:44;99022.00;;;15.58;100.00
79709;BME280;69203;48.964;9.118;2023-10-13T01:38:46;99019.81;;;15.42;100.00
79709;BME280;69203;48.964;9.118;2023-10-13T01:39:47;99011.41;;;15.37;100.00
79709;BME280;69203;48.964;9.118;2023-10-13T01:40:49;99021.59;;;15.42;100.00
79709;BME280;69203;48.964;9.118;2023-10-13T01:41:52;99022.41;;;15.53;100.00
79709;BME280;69203;48.964;9.118;2023-10-13T01:42:58;99016.59;;;15.90;100.00
79709;BME280;69203;48.964;9.118;2023-10-13T01:43:58;99017.44;;;15.90;100.00
79709;BME280;69203;48.964;9.118;2023-10-13T01:44:59;99016.19;;;15.64;100.00
79709;BME280;69203;48.964;9.118;2023-10-13T01:46:05;99012.31;;;15.47;100.00
79709;BME280;69203;48.964;9.118;2023-10-13T01:47:05;99020.59;;;15.33;100.00
79709;BME280;69203;48.964;9.118;2023-10-13T01:48:06;99010.97;;;15.32;100.00
79709;BME280;69203;48.964;9.118;2023-10-13T01:49:07;99016.75;;;15.47;100.00
79709;BME280;69203;48.964;9.118;2023-10-13T01:50:08;99015.34;;;15.43;100.00
79709;BME280;69203;48.964;9.118;2023-10-13T01:51:20;99007.72;;;15.49;100.00
79709;BME280;69203;48.964;9.118;2023-10-13T01:52:24;99011.41;;;15.37;100.00
79709;BME280;69203;48.964;9.118;2023-10-13T01:53:25;99020.19;;;15.38;100.00
79709;BME280;69203;48.964;9.118;2023-10-13T01:54:25;99012.19;;;15.49;100.00
79709;BME280;69203;48.964;9.118;2023-10-13T01:55:25;99012.31;;;15.47;100.00
79709;BME280;69203;48.964;9.118;2023-10-13T01:56:25;99005.97;;;15.39;100.00
79709;BME280;69203;48.964;9.118;2023-10-13T01:57:30;99002.81;;;15.45;100.00
79709;BME280;69203;48.964;9.118;2023-10-13T01:58:30;99009.38;;;15.71;100.00
79709;BME280;69203;48.964;9.118;2023-10-13T01:59:30;99002.88;;;15.75;100.00
79709;BME280;69203;48.964;9.118;2023-10-13T02:00:30;99001.53;;;15.81;100.00
79709;BME280;69203;48.964;9.118;2023-10-13T02:01:34;98997.03;;;15.81;100.00
79709;BME280;69203;48.964;9.118;2023-10-13T02:02:36;98998.38;;;15.66;100.00
79709;BME280;69203;48.964;9.118;2023-10-13T02:03:44;99003.22;;;15.61;100.00
79709;BME280;69203;48.964;9.118;2023-10-13T02:04:48;99007.84;;;15.48;100.00
79709;BME280;69203;48.964;9.118;2023-10-13T02:05:49;99005.28;;;15.37;100.00
79709;BME280;69203;48.964;9.118;2023-10-13T02:06:50;99001.75;;;15.27;100.00
79709;BME280;69203;48.964;9.118;2023-10-13T02:07:52;99002.81;;;15.24;100.00
79709;BME280;69203;48.964;9.118;2023-10-13T02:08:54;99002.81;;;15.24;100.00
79709;BME280;69203;48.964;9.118;2023-10-13T02:09:57;99002.13;;;15.43;100.00
79709;BME280;69203;48.964;9.118;2023-10-13T02:10:57;98999.53;;;15.32;100.00
79709;BME280;69203;48.964;9.118;2023-10-13T02:12:01;98969.66;;;15.20;100.00
79709;BME280;69203;48.964;9.118;2023-10-13T02:13:01;99000.16;;;15.45;100.00
79709;BME280;69203;48.964;9.118;2023-10-13T02:14:04;98996.31;;;15.70;100.00
79709;BME280;69203;48.964;9.118;2023-10-13T02:15:04;98994.03;;;15.86;100.00
79709;BME280;69203;48.964;9.118;2023-10-13T02:16:04;98991.63;;;15.83;100.00
79709;BME280;69203;48.964;9.118;2023-10-13T02:17:07;98985.66;;;15.90;100.00
79709;BME280;69203;48.964;9.118;2023-10-13T02:18:15;98973.84;;;15.94;100.00
79709;BME280;69203;48.964;9.118;2023-10-13T02:19:26;98981.78;;;15.64;100.00
79709;BME280;69203;48.964;9.118;2023-10-13T02:20:28;98985.09;;;15.56;100.00
79709;BME280;69203;48.964;9.118;2023-10-13T02:21:34;98978.25;;;15.54;100.00
79709;BME280;69203;48.964;9.118;2023-10-13T02:22:45;98971.59;;;15.59;100.00
79709;BME280;69203;48.964;9.118;2023-10-13T02:23:51;98968.28;;;15.46;100.00
79709;BME280;69203;48.964;9.118;2023-10-13T02:25:02;98965.66;;;15.46;100.00
79709;BME280;69203;48.964;9.118;2023-10-13T02:26:07;98968.56;;;15.64;100.00
79709;BME280;69203;48.964;9.118;2023-10-13T02:27:30;98967.69;;;15.54;100.00
79709;BME280;69203;48.964;9.118;2023-10-13T02:28:40;98971.84;;;15.56;100.00
79709;BME280;69203;48.964;9.118;2023-10-13T02:29:40;98967.63;;;15.75;100.00
79709;BME280;69203;48.964;9.118;2023-10-13T02:30:41;98967.66;;;15.84;100.00
79709;BME280;69203;48.964;9.118;2023-10-13T02:31:44;98964.50;;;15.90;100.00
79709;BME280;69203;48.964;9.118;2023-10-13T02:32:54;98956.75;;;15.78;100.00
79709;BME280;69203;48.964;9.118;2023-10-13T02:33:55;98959.16;;;15.81;100.00
79709;BME280;69203;48.964;9.118;2023-10-13T02:34:55;98953.28;;;15.77;100.00
79709;BME280;69203;48.964;9.118;2023-10-13T02:36:05;98951.91;;;15.83;100.00
79709;BME280;69203;48.964;9.118;2023-10-13T02:37:06;98950.53;;;15.88;100.00
79709;BME280;69203;48.964;9.118;2023-10-13T02:38:06;98946.22;;;15.87;100.00
79709;BME280;69203;48.964;9.118;2023-10-13T02:39:11;98942.44;;;15.80;100.00
79709;BME280;69203;48.964;9.118;2023-10-13T02:40:13;98941.16;;;15.75;100.00
79709;BME280;69203;48.964;9.118;2023-10-13T02:41:14;98945.75;;;15.73;100.00
79709;BME280;69203;48.964;9.118;2023-10-13T02:42:33;98941.16;;;15.75;100.00
79709;BME280;69203;48.964;9.118;2023-10-13T02:43:34;98940.84;;;15.68;100.00
79709;BME280;69203;48.964;9.118;2023-10-13T02:44:34;98929.13;;;15.61;100.00
79709;BME280;69203;48.964;9.118;2023-10-13T02:45:36;98931.47;;;15.54;100.00
79709;BME280;69203;48.964;9.118;2023-10-13T02:46:36;98931.78;;;15.40;100.00
79709;BME280;69203;48.964;9.118;2023-10-13T02:47:39;98937.53;;;15.25;100.00
79709;BME280;69203;48.964;9.118;2023-10-13T02:48:41;98931.81;;;15.19;100.00
79709;BME280;69203;48.964;9.118;2023-10-13T02:49:42;98927.44;;;15.39;100.00
79709;BME280;69203;48.964;9.118;2023-10-13T02:50:54;98919.22;;;15.53;100.00
79709;BME280;69203;48.964;9.118;2023-10-13T02:51:54;98919.16;;;15.44;100.00
79709;BME280;69203;48.964;9.118;2023-10-13T02:52:55;98917.19;;;15.46;100.00
79709;BME280;69203;48.964;9.118;2023-10-13T02:53:56;98921.06;;;15.62;100.00
79709;BME280;69203;48.964;9.118;2023-10-13T02:55:02;98910.63;;;15.71;100.00
79709;BME280;69203;48.964;9.118;2023-10-13T02:56:08;98916.09;;;15.48;100.00
79709;BME280;69203;48.964;9.118;2023-10-13T02:57:13;98911.72;;;15.38;100.00
79709;BME280;69203;48.964;9.118;2023-10-13T02:58:15;98917.06;;;15.47;100.00
79709;BME280;69203;48.964;9.118;2023-10-13T02:59:15;98911.00;;;15.56;100.00
79709;BME280;69203;48.964;9.118;2023-10-13T03:00:26;98910.94;;;15.77;100.00
79709;BME280;69203;48.964;9.118;2023-10-13T03:01:32;98910.31;;;15.54;100.00
79709;BME280;69203;48.964;9.118;2023-10-13T03:02:35;98908.28;;;15.47;100.00
79709;BME280;69203;48.964;9.118;2023-10-13T03:03:42;98905.84;;;15.34;100.00
79709;BME280;69203;48.964;9.118;2023-10-13T03:04:44;98916.19;;;15.37;100.00
79709;BME280;69203;48.964;9.118;2023-10-13T03:05:45;98918.91;;;15.26;100.00
79709;BME280;69203;48.964;9.118;2023-10-13T03:06:45;98915.78;;;15.42;100.00
79709;BME280;69203;48.964;9.118;2023-10-13T03:07:47;98914.75;;;15.54;100.00
79709;BME280;69203;48.964;9.118;2023-10-13T03:08:51;98912.59;;;15.69;100.00
79709;BME280;69203;48.964;9.118;2023-10-13T03:09:52;98914.91;;;15.62;100.00
79709;BME280;69203;48.964;9.118;2023-10-13T03:10:54;98909.53;;;15.43;100.00
79709;BME280;69203;48.964;9.118;2023-10-13T03:11:54;98917.41;;;15.33;100.00
79709;BME280;69203;48.964;9.118;2023-10-13T03:12:55;98911.41;;;15.31;100.00
79709;BME280;69203;48.964;9.118;2023-10-13T03:13:55;98908.66;;;15.33;100.00
79709;BME280;69203;48.964;9.118;2023-10-13T03:14:55;98914.13;;;15.20;100.00
79709;BME280;69203;48.964;9.118;2023-10-13T03:15:57;98916.66;;;15.21;100.00
79709;BME280;69203;48.964;9.118;2023-10-13T03:16:59;98910.47;;;15.11;100.00
79709;BME280;69203;48.964;9.118;2023-10-13T03:18:07;98912.81;;;15.05;100.00
79709;BME280;69203;48.964;9.118;2023-10-13T03:19:15;98909.19;;;15.06;100.00
79709;BME280;69203;48.964;9.118;2023-10-13T03:20:18;98913.88;;;15.02;100.00
79709;BME280;69203;48.964;9.118;2023-10-13T03:21:24;98914.47;;;15.06;100.00
79709;BME280;69203;48.964;9.118;2023-10-13T03:22:31;98911.78;;;14.96;100.00
79709;BME280;69203;48.964;9.118;2023-10-13T03:23:31;98906.63;;;14.95;100.00
79709;BME280;69203;48.964;9.118;2023-10-13T03:24:46;98913.25;;;15.10;100.00
79709;BME280;69203;48.964;9.118;2023-10-13T03:25:47;98909.22;;;15.36;100.00
79709;BME280;69203;48.964;9.118;2023-10-13T03:26:50;98902.25;;;15.35;100.00
79709;BME280;69203;48.964;9.118;2023-10-13T03:27:52;98908.22;;;15.28;100.00
79709;BME280;69203;48.964;9.118;2023-10-13T03:28:53;98909.84;;;14.98;100.00
79709;BME280;69203;48.964;9.118;2023-10-13T03:29:57;98911.38;;;15.01;100.00
79709;BME280;69203;48.964;9.118;2023-10-13T03:31:00;98912.53;;;15.08;100.00
79709;BME280;69203;48.964;9.118;2023-10-13T03:32:02;98895.47;;;15.12;100.00
79709;BME280;69203;48.964;9.118;2023-10-13T03:33:11;98900.41;;;15.26;100.00
79709;BME280;69203;48.964;9.118;2023-10-13T03:34:12;98900.84;;;15.31;100.00
79709;BME280;69203;48.964;9.118;2023-10-13T03:35:13;98913.88;;;15.23;100.00
79709;BME280;69203;48.964;9.118;2023-10-13T03:36:17;98901.88;;;15.19;100.00
79709;BME280;69203;48.964;9.118;2023-10-13T03:37:37;98908.00;;;15.19;100.00
79709;BME280;69203;48.964;9.118;2023-10-13T03:38:43;98903.25;;;14.93;100.00
79709;BME280;69203;48.964;9.118;2023-10-13T03:39:46;98901.84;;;14.89;100.00
79709;BME280;69203;48.964;9.118;2023-10-13T03:40:48;98909.19;;;14.85;100.00
79709;BME280;69203;48.964;9.118;2023-10-13T03:41:48;98911.25;;;15.02;100.00
79709;BME280;69203;48.964;9.118;2023-10-13T03:42:54;98909.44;;;15.03;100.00
79709;BME280;69203;48.964;9.118;2023-10-13T03:44:00;98903.13;;;15.15;100.00
79709;BME280;69203;48.964;9.118;2023-10-13T03:45:15;98900.50;;;15.25;100.00
79709;BME280;69203;48.964;9.118;2023-10-13T03:46:18;98908.22;;;15.28;100.00
79709;BME280;69203;48.964;9.118;2023-10-13T03:47:22;98904.97;;;15.24;100.00
79709;BME280;69203;48.964;9.118;2023-10-13T03:48:32;98899.63;;;15.14;100.00
79709;BME280;69203;48.964;9.118;2023-10-13T03:49:41;98901.72;;;15.11;100.00
79709;BME280;69203;48.964;9.118;2023-10-13T03:50:41;98903.19;;;15.34;100.00
79709;BME280;69203;48.964;9.118;2023-10-13T03:51:59;98895.94;;;15.27;100.00
79709;BME280;69203;48.964;9.118;2023-10-13T03:53:00;98897.91;;;15.34;100.00
79709;BME280;69203;48.964;9.118;2023-10-13T03:54:00;98894.78;;;15.19;100.00
79709;BME280;69203;48.964;9.118;2023-10-13T03:55:07;98902.59;;;15.21;100.00
79709;BME280;69203;48.964;9.118;2023-10-13T03:56:08;98901.19;;;15.17;100.00
79709;BME280;69203;48.964;9.118;2023-10-13T03:57:08;98899.19;;;15.09;100.00
79709;BME280;69203;48.964;9.118;2023-10-13T03:58:14;98907.69;;;14.92;100.00
79709;BME280;69203;48.964;9.118;2023-10-13T03:59:14;98906.78;;;15.03;100.00
79709;BME280;69203;48.964;9.118;2023-10-13T04:00:20;98897.91;;;15.04;100.00
79709;BME280;69203;48.964;9.118;2023-10-13T04:01:31;98897.56;;;15.18;100.00
79709;BME280;69203;48.964;9.118;2023-10-13T04:02:35;98897.19;;;15.23;100.00
79709;BME280;69203;48.964;9.118;2023-10-13T04:03:36;98899.81;;;15.23;100.00
79709;BME280;69203;48.964;9.118;2023-10-13T04:04:37;98903.69;;;14.98;100.00
79709;BME280;69203;48.964;9.118;2023-10-13T04:05:49;98908.47;;;14.83;100.00
79709;BME280;69203;48.964;9.118;2023-10-13T04:07:06;98909.06;;;14.87;100.00
79709;BME280;69203;48.964;9.118;2023-10-13T04:08:09;98903.66;;;14.88;100.00
79709;BME280;69203;48.964;9.118;2023-10-13T04:09:27;98907.19;;;14.77;100.00
79709;BME280;69203;48.964;9.118;2023-10-13T04:10:30;98910.34;;;14.71;100.00
79709;BME280;69203;48.964;9.118;2023-10-13T04:11:54;98910.09;;;14.74;100.00
79709;BME280;69203;48.964;9.118;2023-10-13T04:13:03;98900.56;;;14.83;100.00
79709;BME280;69203;48.964;9.118;2023-10-13T04:14:21;98906.34;;;14.98;100.00
79709;BME280;69203;48.964;9.118;2023-10-13T04:15:45;98909.25;;;14.95;100.00
79709;BME280;69203;48.964;9.118;2023-10-13T04:17:21;98898.69;;;14.95;100.00
79709;BME280;69203;48.964;9.118;2023-10-13T04:18:27;98902.84;;;14.97;100.00
79709;BME280;69203;48.964;9.118;2023-10-13T04:19:48;98899.75;;;15.13;100.00
79709;BME280;69203;48.964;9.118;2023-10-13T04:21:06;98900.59;;;14.93;100.00
79709;BME280;69203;48.964;9.118;2023-10-13T04:22:39;98899.13;;;15.00;100.00
79709;BME280;69203;48.964;9.118;2023-10-13T04:23:46;98897.09;;;15.13;100.00
79709;BME280;69203;48.964;9.118;2023-10-13T04:25:04;98895.63;;;15.20;100.00
79709;BME280;69203;48.964;9.118;2023-10-13T04:26:26;98891.78;;;15.03;100.00
79709;BME280;69203;48.964;9.118;2023-10-13T04:27:36;98891.53;;;15.06;100.00
79709;BME280;69203;48.964;9.118;2023-10-13T04:28:40;98889.84;;;15.05;100.00
79709;BME280;69203;48.964;9.118;2023-10-13T04:29:50;98887.81;;;15.18;100.00
79709;BME280;69203;48.964;9.118;2023-10-13T04:30:53;98893.06;;;15.09;100.00
79709;BME280;69203;48.964;9.118;2023-10-13T04:31:56;98889.69;;;15.07;100.00
79709;BME280;69203;48.964;9.118;2023-10-13T04:33:00;98882.16;;;14.82;100.00
79709;BME280;69203;48.964;9.118;2023-10-13T04:34:19;98882.38;;;14.90;100.00
79709;BME280;69203;48.964;9.118;2023-10-13T04:35:27;98884.41;;;14.86;100.00
79709;BME280;69203;48.964;9.118;2023-10-13T04:36:35;98881.28;;;14.71;100.00
79709;BME280;69203;48.964;9.118;2023-10-13T04:37:36;98884.31;;;14.88;100.00
79709;BME280;69203;48.964;9.118;2023-10-13T04:38:52;98888.22;;;14.93;100.00
79709;BME280;69203;48.964;9.118;2023-10-13T04:39:52;98880.88;;;14.76;100.00
79709;BME280;69203;48.964;9.118;2023-10-13T04:40:58;98879.22;;;14.75;100.00
79709;BME280;69203;48.964;9.118;2023-10-13T04:42:02;98874.50;;;14.78;100.00
79709;BME280;69203;48.964;9.118;2023-10-13T04:43:13;98872.25;;;14.95;100.00
79709;BME280;69203;48.964;9.118;2023-10-13T04:44:32;98875.06;;;15.03;100.00
79709;BME280;69203;48.964;9.118;2023-10-13T04:45:41;98867.38;;;14.90;100.00
79709;BME280;69203;48.964;9.118;2023-10-13T04:46:54;98871.03;;;14.78;100.00
79709;BME280;69203;48.964;9.118;2023-10-13T04:48:07;98870.91;;;14.79;100.00
79709;BME280;69203;48.964;9.118;2023-10-13T04:49:18;98864.31;;;14.95;100.00
79709;BME280;69203;48.964;9.118;2023-10-13T04:50:46;98872.31;;;15.04;100.00
79709;BME280;69203;48.964;9.118;2023-10-13T04:51:48;98860.44;;;14.99;100.00
79709;BME280;69203;48.964;9.118;2023-10-13T04:52:59;98870.75;;;15.02;100.00
79709;BME280;69203;48.964;9.118;2023-10-13T04:54:08;98860.13;;;14.92;100.00
79709;BME280;69203;48.964;9.118;2023-10-13T04:55:25;98861.09;;;15.12;100.00
79709;BME280;69203;48.964;9.118;2023-10-13T04:57:00;98864.31;;;15.25;100.00
79709;BME280;69203;48.964;9.118;2023-10-13T04:58:19;98858.44;;;15.12;100.00
79709;BME280;69203;48.964;9.118;2023-10-13T04:59:31;98861.59;;;15.06;100.00
79709;BME280;69203;48.964;9.118;2023-10-13T05:01:00;98858.44;;;15.12;100.00
79709;BME280;69203;48.964;9.118;2023-10-13T05:02:24;98850.09;;;15.16;100.00
79709;BME280;69203;48.964;9.118;2023-10-13T05:03:36;98850.59;;;15.01;100.00
79709;BME280;69203;48.964;9.118;2023-10-13T05:04:55;98849.09;;;14.87;100.00
79709;BME280;69203;48.964;9.118;2023-10-13T05:06:14;98850.25;;;14.94;100.00
79709;BME280;69203;48.964;9.118;2023-10-13T05:07:34;98850.97;;;14.96;100.00
79709;BME280;69203;48.964;9.118;2023-10-13T05:08:53;98854.75;;;15.03;100.00
79709;BME280;69203;48.964;9.118;2023-10-13T05:10:12;98852.63;;;14.97;100.00
79709;BME280;69203;48.964;9.118;2023-10-13T05:11:32;98858.38;;;15.02;100.00
79709;BME280;69203;48.964;9.118;2023-10-13T05:12:51;98849.06;;;15.08;100.00
79709;BME280;69203;48.964;9.118;2023-10-13T05:14:10;98844.97;;;14.94;100.00
79709;BME280;69203;48.964;9.118;2023-10-13T05:15:29;98853.81;;;14.84;100.00
79709;BME280;69203;48.964;9.118;2023-10-13T05:16:48;98845.94;;;14.93;100.00
79709;BME280;69203;48.964;9.118;2023-10-13T05:18:07;98839.69;;;14.94;100.00
79709;BME280;69203;48.964;9.118;2023-10-13T05:19:26;98851.28;;;15.03;100.00
79709;BME280;69203;48.964;9.118;2023-10-13T05:20:45;98845.41;;;14.99;100.00
79709;BME280;69203;48.964;9.118;2023-10-13T05:22:04;98840.13;;;14.99;100.00
79709;BME280;69203;48.964;9.118;2023-10-13T05:23:23;98840.16;;;15.09;100.00
79709;BME280;69203;48.964;9.118;2023-10-13T05:24:42;98841.91;;;15.19;100.00
79709;BME280;69203;48.964;9.118;2023-10-13T05:26:08;98841.00;;;15.09;100.00
79709;BME280;69203;48.964;9.118;2023-10-13T05:27:28;98844.56;;;14.99;100.00
79709;BME280;69203;48.964;9.118;2023-10-13T05:28:47;98839.34;;;15.08;100.00
79709;BME280;69203;48.964;9.118;2023-10-13T05:30:08;98839.94;;;15.12;100.00
79709;BME280;69203;48.964;9.118;2023-10-13T05:31:27;98844.06;;;15.05;100.00
79709;BME280;69203;48.964;9.118;2023-10-13T05:32:46;98836.69;;;15.08;100.00
79709;BME280;69203;48.964;9.118;2023-10-13T05:34:05;98845.06;;;15.13;100.00
79709;BME280;69203;48.964;9.118;2023-10-13T05:35:24;98841.13;;;15.08;100.00
79709;BME280;69203;48.964;9.118;2023-10-13T05:36:43;98838.34;;;15.00;100.00
79709;BME280;69203;48.964;9.118;2023-10-13T05:38:02;98840.53;;;14.95;100.00
79709;BME280;69203;48.964;9.118;2023-10-13T05:42:17;98829.19;;;15.13;100.00
79709;BME280;69203;48.964;9.118;2023-10-13T05:43:36;98835.41;;;15.03;100.00
79709;BME280;69203;48.964;9.118;2023-10-13T05:44:55;98831.84;;;15.13;100.00
79709;BME280;69203;48.964;9.118;2023-10-13T05:46:19;98833.75;;;15.32;100.00
79709;BME280;69203;48.964;9.118;2023-10-13T05:47:26;98830.00;;;15.44;100.00
79709;BME280;69203;48.964;9.118;2023-10-13T05:48:43;98826.91;;;15.30;100.00
79709;BME280;69203;48.964;9.118;2023-10-13T05:49:58;98836.53;;;15.40;100.00
79709;BME280;69203;48.964;9.118;2023-10-13T05:51:29;98828.16;;;15.35;100.00
79709;BME280;69203;48.964;9.118;2023-10-13T05:52:36;98831.34;;;15.29;100.00
79709;BME280;69203;48.964;9.118;2023-10-13T05:53:54;98827.09;;;15.38;100.00
79709;BME280;69203;48.964;9.118;2023-10-13T05:55:11;98830.09;;;15.54;100.00